Thursday, March 5, 2015, 9:24 PM EST

KLKU, Louisa, Louisa County Airport/freeman Field

Location: Louisa, VA, United States Lat: 38.01
Local Time: 9:24 PM EST ( 2:24 GMT) Lon: -77.97
Time Zone: US/Eastern Elev: 492 ft

Show me the last for .
Show Decoded

2015-03-05 20:35 METAR KLKU 060135Z AUTO 01005KT 10SM OVC085 M04/M06 A3033 RMK AO2 =
2015-03-05 20:15 METAR KLKU 060115Z AUTO 36006KT 10SM SCT015 BKN025 OVC095 M04/M05 A3033 RMK AO2
                 =
2015-03-05 19:55 METAR KLKU 060055Z AUTO 36006KT 4SM -SN SCT019 BKN025 OVC075 M03/M05 A3032 RMK
                 AO2 =
2015-03-05 19:35 METAR KLKU 060035Z AUTO 36005KT 10SM OVC075 M03/M06 A3032 RMK AO2 =
2015-03-05 19:15 METAR KLKU 060015Z AUTO 01005KT 10SM OVC075 M03/M06 A3029 RMK AO2 =
2015-03-05 18:55 METAR KLKU 052355Z AUTO 36007KT 10SM OVC075 M03/M06 A3027 RMK AO2 P0001 =
2015-03-05 18:35 METAR KLKU 052335Z AUTO 35006KT 10SM SCT050 SCT060 OVC075 M03/M05 A3027 RMK AO2
                 P0001 =
2015-03-05 18:15 METAR KLKU 052315Z AUTO 35008KT 320V020 10SM SCT049 OVC060 M03/M05 A3027 RMK AO2
                 P0001 =
2015-03-05 17:35 METAR KLKU 052235Z AUTO 36007KT 10SM -SN SCT036 OVC043 M03/M05 A3022 RMK AO2 =
2015-03-05 17:15 METAR KLKU 052215Z AUTO 35008G14KT 2 1/2SM -SN SCT012 OVC039 M03/M04 A3021 RMK
                 AO2 =
2015-03-05 16:55 METAR KLKU 052155Z AUTO 35010KT 1 1/2SM -SN SCT009 OVC012 M03/M04 A3020 RMK AO2
                 P0008 =
2015-03-05 16:35 METAR KLKU 052135Z AUTO 01010G16KT 1 1/2SM -SN BKN007 OVC013 M03/M04 A3018 RMK
                 AO2 P0006 =
2015-03-05 16:15 METAR KLKU 052115Z AUTO 35011G16KT 1/2SM -SN OVC007 M03/M04 A3019 RMK AO2 P0004
                 =
2015-03-05 15:55 METAR KLKU 052055Z AUTO 36008G14KT 1/2SM SN OVC005 M03/M04 A3018 RMK AO2 P0010 =
2015-03-05 15:35 METAR KLKU 052035Z AUTO 01010G17KT 1/4SM SN OVC003 M03/M04 A3015 RMK AO2 P0006 =
2015-03-05 15:15 METAR KLKU 052015Z AUTO 36008KT 1/4SM SN OVC003 M02/M03 A3016 RMK AO2 P0003 =
2015-03-05 14:55 METAR KLKU 051955Z AUTO 03007G14KT 000V060 1/2SM SN OVC003 M02/M03 A3013 RMK AO2
                 P0010 =
2015-03-05 14:35 METAR KLKU 051935Z AUTO 05008KT 1/4SM SN OVC001 M02/M03 A3014 RMK AO2 P0006 =
2015-03-05 14:15 METAR KLKU 051915Z AUTO 01006KT 1/4SM SN OVC001 M02/M03 A3015 RMK AO2 P0003 =
2015-03-05 13:55 METAR KLKU 051855Z AUTO 36007KT 320V020 1/4SM SN OVC003 M02/M02 A3016 RMK AO2
                 P0002 =
2015-03-05 13:35 METAR KLKU 051835Z AUTO 02008KT 1/4SM SN OVC007 M01/M02 A3016 RMK AO2 P0002 =
2015-03-05 13:15 METAR KLKU 051815Z AUTO 02010G16KT 3/4SM -SN OVC009 M01/M02 A3015 RMK AO2 P0001
                 =
2015-03-05 12:55 METAR KLKU 051755Z AUTO 36005KT 1 1/4SM -SN BKN009 OVC014 M01/M02 A3016 RMK AO2
                 P0002 =
2015-03-05 12:35 METAR KLKU 051735Z AUTO 01007G15KT 5SM UP SCT012 BKN028 OVC043 M01/M02 A3014 RMK
                 AO2 P0001 =
2015-03-05 12:15 METAR KLKU 051715Z AUTO 01007G16KT 7SM UP SCT012 BKN043 OVC060 M01/M02 A3012 RMK
                 AO2 P0001 =
2015-03-05 10:55 METAR KLKU 051555Z AUTO 01009G20KT 4SM UP SCT006 BKN012 OVC039 00/M01 A3015 RMK
                 AO2 P0001 =
2015-03-05 10:35 METAR KLKU 051535Z AUTO 02009KT 000V060 3SM UP SCT009 OVC037 01/M01 A3010 RMK
                 AO2 P0001 =
2015-03-05 10:15 METAR KLKU 051515Z AUTO 02012G19KT 5SM UP BKN010 BKN015 OVC035 01/M01 A3010 RMK
                 AO2 P0001 =
2015-03-05 09:55 METAR KLKU 051455Z AUTO 06010G18KT 2 1/2SM UP SCT010 BKN015 OVC025 01/00 A3007
                 RMK AO2 P0010 =
2015-03-05 09:35 METAR KLKU 051435Z AUTO 04010G15KT 2SM RA BKN008 OVC013 01/01 A3008 RMK AO2
                 P0008 =
2015-03-05 09:15 METAR KLKU 051415Z AUTO 02007KT 000V060 2SM RA BKN008 OVC015 02/01 A3008 RMK AO2
                 P0005 =
2015-03-05 08:55 METAR KLKU 051355Z AUTO 03007G15KT 2 1/2SM -RA SCT010 BKN024 OVC029 02/01 A3006
                 RMK AO2 P0007 =
2015-03-05 08:35 METAR KLKU 051335Z AUTO 03008G15KT 2 1/2SM +DZ SCT007 BKN013 OVC029 02/01 A3007
                 RMK AO2 P0005 =
2015-03-05 08:15 METAR KLKU 051315Z AUTO 03009G17KT 2SM RA BKN009 OVC014 02/01 A3005 RMK AO2
                 P0003 =
2015-03-05 07:55 METAR KLKU 051255Z AUTO 01010G15KT 2 1/2SM +RA SCT009 BKN015 OVC025 02/01 A3005
                 RMK AO2 P0003 =
2015-03-05 07:35 METAR KLKU 051235Z AUTO 02010G21KT 4SM DZ SCT010 OVC014 02/01 A3004 RMK AO2
                 P0001 =
2015-03-05 07:15 METAR KLKU 051215Z AUTO 03009G16KT 000V060 5SM RA OVC012 02/01 A3002 RMK AO2
                 P0001 =
2015-03-05 06:55 METAR KLKU 051155Z AUTO 03010G16KT 7SM -DZ BKN010 OVC016 03/02 A3002 RMK AO2
                 P0002 =
2015-03-05 06:35 METAR KLKU 051135Z AUTO 04011G17KT 7SM DZ BKN010 OVC015 03/02 A2999 RMK AO2
                 P0002 =
2015-03-05 06:15 METAR KLKU 051115Z AUTO 04009G20KT 7SM RA SCT009 OVC015 03/02 A2999 RMK AO2
                 P0001 =
2015-03-05 05:55 METAR KLKU 051055Z AUTO 04008KT 5SM DZ SCT007 BKN013 OVC023 03/02 A3000 RMK AO2
                 P0002 =
2015-03-05 05:35 METAR KLKU 051035Z AUTO 04008G15KT 7SM DZ SCT010 BKN013 OVC029 03/02 A2998 RMK
                 AO2 P0002 =
2015-03-05 05:15 METAR KLKU 051015Z AUTO 04008KT 10SM DZ BKN010 OVC014 04/03 A2997 RMK AO2 P0001
                 =
2015-03-05 04:55 METAR KLKU 050955Z AUTO 04008KT 7SM -RA BKN008 OVC012 04/03 A2997 RMK AO2 P0005
                 =
2015-03-05 04:35 METAR KLKU 050935Z AUTO 04010KT 7SM RA SCT007 OVC012 04/03 A2995 RMK AO2 P0004 =
2015-03-05 04:15 METAR KLKU 050915Z AUTO 05008KT 7SM -RA BKN007 OVC012 05/04 A2995 RMK AO2 P0002
                 =
2015-03-05 03:55 METAR KLKU 050855Z AUTO 04009G15KT 7SM RA BKN007 OVC011 05/04 A2994 RMK AO2
                 P0007 =
2015-03-05 03:35 METAR KLKU 050835Z AUTO 04005KT 7SM DZ BKN007 OVC014 06/05 A2993 RMK AO2 P0005 =
2015-03-05 03:15 METAR KLKU 050815Z AUTO 05009KT 5SM RA OVC010 06/05 A2993 RMK AO2 P0004 =
2015-03-05 02:55 METAR KLKU 050755Z AUTO 05011KT 7SM -DZ OVC007 07/06 A2993 RMK AO2 P0001 =
2015-03-05 02:35 METAR KLKU 050735Z AUTO 05006KT 7SM -DZ BKN005 OVC010 07/06 A2992 RMK AO2 P0001
                 =
2015-03-05 02:15 METAR KLKU 050715Z AUTO 04008KT 7SM DZ BKN005 OVC011 07/06 A2993 RMK AO2 =
2015-03-05 01:55 METAR KLKU 050655Z AUTO 04005KT 7SM DZ BKN005 OVC009 08/07 A2993 RMK AO2 P0003 =
2015-03-05 01:35 METAR KLKU 050635Z AUTO 03007KT 10SM SCT003 OVC009 08/07 A2993 RMK AO2 P0002 =
2015-03-05 01:15 METAR KLKU 050615Z AUTO 03005KT 10SM DZ SCT007 BKN010 OVC018 08/07 A2993 RMK AO2
                 P0002 =
2015-03-05 00:55 METAR KLKU 050555Z AUTO 02004KT 7SM +DZ SCT005 BKN010 OVC023 08/08 A2995 RMK AO2
                 P0006 =
2015-03-05 00:35 METAR KLKU 050535Z AUTO 02004KT 7SM +DZ BKN005 OVC021 08/08 A2992 RMK AO2 P0004
                 =
2015-03-05 00:15 METAR KLKU 050515Z AUTO 03006KT 7SM +DZ OVC005 08/08 A2991 RMK AO2 P0002 =
2015-03-04 23:55 METAR KLKU 050455Z AUTO 02008KT 7SM +RA OVC003 09/09 A2991 RMK AO2 P0007 =
2015-03-04 23:35 METAR KLKU 050435Z AUTO 35005KT 2 1/2SM +DZ BKN003 OVC049 09/09 A2992 RMK AO2
                 P0004 =
2015-03-04 23:15 METAR KLKU 050415Z AUTO 00000KT 1SM DZ BKN003 OVC016 09/09 A2991 RMK AO2 P0002 =
2015-03-04 22:55 METAR KLKU 050355Z AUTO 00000KT 1 1/4SM +DZ SCT017 BKN023 OVC044 09/09 A2992 RMK
                 AO2 P0004 =
2015-03-04 22:35 METAR KLKU 050335Z AUTO 00000KT 1SM DZ BKN043 OVC049 09/08 A2991 RMK AO2 P0002 =
2015-03-04 22:15 METAR KLKU 050315Z AUTO 00000KT 1 3/4SM DZ OVC046 09/09 A2990 RMK AO2 VIS 3/4V3
                 P0002 =

Support USWX by starting your Amazon purchase here.